Ellery, Illinois
Current Conditions -  °F | °C
As of 8:35 AM on Friday 31 Oct 2014 (Local Time) from KFWC Reporting Station
Overcast Overcast  
Wind Chill: 43°   Ceiling: 2000
Heat Index: 47°   Visibility: 10mi
Dew Point: 42°   Wind: 8mph
Humidity: 82%   Direction: 330°NNW
Pressure: 30.11"   Gusts: 16mph
Location:  38.35°N, 88.15°W
Report Text: KFWC 311335Z AUTO 33007G14KT 10SM BKN020 BKN024 OVC050 09/06 A3011 RMK AO1 T00850056
Loading
Personal Weather Stations






























Interactive Weather Map
Tropical Storm Tracking
New forecast layout! Learn more

10-Day Weather Forecast

Advertisements
Track Severe Weather on mobile